Ecokeeper — SVTY — position and weather

sailwx.info

Track history (hours):
 
Tides and Currents Weather Stations Pressure Air Temp Water Temp Dewpoint Dewpoint Depression Visibility Wind Speed Wind Dir Waves Ship Positions

Ecokeeper

Last reported at 2016-Jun-27 12:33 UTC. Time now 2016-Jun-28 20:40 UTC.
Position N 37°57' E 023°34'.

Length 90 m; draft 4.2 m.

Type: Tanker. MMSI: 240689000.

Date/timePositionNaut miles runAvg speedWind from/ knotsBaromVisibWave heightAir tempDewpointWater temp
2016-Jun-27 12:33N 37°57' E 023°34'2 2.4
2016-Jun-27 11:33N 37°57' E 023°37'0 0.0
2016-Jun-27 10:33N 37°57' E 023°37'0 0.0
2016-Jun-27 09:33N 37°57' E 023°37'0 0.0
2016-Jun-27 08:34N 37°57' E 023°37'0 0.0
2016-Jun-27 07:34N 37°57' E 023°37'0 0.0
2016-Jun-27 06:33N 37°57' E 023°37'1 0.8
2016-Jun-27 05:33N 37°57' E 023°36'2 0.1
2016-Jun-26 18:17N 37°57' E 023°34'4 5.2
2016-Jun-26 17:33N 38°00' E 023°32'1 1.0
2016-Jun-26 16:33N 38°01' E 023°31'0 0.0
2016-Jun-26 15:33N 38°01' E 023°31'0 0.2
2016-Jun-26 14:33N 38°01' E 023°31'0 0.0
2016-Jun-26 13:33N 38°01' E 023°31'0 0.0
2016-Jun-26 12:33N 38°01' E 023°31'0 0.0
2016-Jun-26 11:33N 38°01' E 023°31'4 4.0
2016-Jun-26 10:33N 37°57' E 023°34'2 1.9
2016-Jun-26 09:33N 37°55' E 023°34'0 0.0
2016-Jun-26 08:33N 37°55' E 023°34'0 0.0
2016-Jun-26 07:33N 37°55' E 023°34'0 0.0
2016-Jun-26 06:33N 37°55' E 023°34'0 0.0
2016-Jun-26 05:33N 37°55' E 023°34'0 0.0
2016-Jun-26 04:33N 37°55' E 023°34'0 0.0
2016-Jun-26 03:33N 37°55' E 023°34'0 0.0
2016-Jun-26 02:33N 37°55' E 023°34'0 0.0
2016-Jun-26 01:33N 37°55' E 023°34'0 0.0
2016-Jun-26 00:33N 37°55' E 023°34'0 0.0
2016-Jun-25 23:33N 37°56' E 023°34'5 5.4
2016-Jun-25 22:33N 37°51' E 023°31'1 0.6
2016-Jun-25 21:33N 37°50' E 023°31'0 0.1
2016-Jun-25 20:33N 37°50' E 023°31'0 0.0
2016-Jun-25 19:33N 37°50' E 023°31'0 0.0
2016-Jun-25 18:33N 37°50' E 023°31'0 0.0
2016-Jun-25 17:33N 37°50' E 023°31'5 4.8
2016-Jun-25 16:33N 37°54' E 023°34'3 0.1
2016-Jun-24 12:33N 37°57' E 023°34'2 2.3
2016-Jun-24 11:33N 37°57' E 023°37'0 0.0
2016-Jun-24 10:33N 37°57' E 023°37'0 0.0
2016-Jun-24 09:34N 37°57' E 023°37'0 0.0
2016-Jun-24 08:33N 37°57' E 023°37'0 0.0
2016-Jun-24 07:33N 37°57' E 023°37'0 0.2
2016-Jun-24 06:34N 37°57' E 023°37'2 0.2
2016-Jun-23 19:19N 37°57' E 023°34'1 1.5
2016-Jun-23 18:33N 37°56' E 023°35'6 5.8
2016-Jun-23 17:33N 37°51' E 023°32'0 0.0
2016-Jun-23 16:33N 37°51' E 023°32'0 0.0
2016-Jun-23 15:33N 37°51' E 023°32'0 0.0
2016-Jun-23 14:33N 37°51' E 023°32'0 0.0
2016-Jun-23 13:33N 37°51' E 023°32'0 0.0
2016-Jun-23 12:33N 37°51' E 023°32'0 0.0
2016-Jun-23 11:33N 37°51' E 023°32'1 0.6
2016-Jun-23 10:33N 37°51' E 023°32'6 5.9
2016-Jun-23 09:33N 37°57' E 023°34'0 0.0
2016-Jun-21 14:30N 37°57' E 023°34'4 4.4
2016-Jun-21 13:34N 38°01' E 023°32'0 0.0
2016-Jun-21 12:34N 38°01' E 023°32'0 0.0
2016-Jun-21 11:33N 38°01' E 023°32'0 0.0
2016-Jun-21 10:33N 38°01' E 023°32'0 0.0
2016-Jun-21 09:33N 38°01' E 023°32'0 0.0
2016-Jun-21 08:34N 38°01' E 023°32'0 0.0
2016-Jun-21 07:34N 38°01' E 023°32'3 1.6
2016-Jun-21 05:33N 37°58' E 023°33'1 0.1
2016-Jun-20 18:12N 37°57' E 023°34'1 2.1
2016-Jun-20 17:33N 37°56' E 023°34'4 4.3
2016-Jun-20 16:33N 37°53' E 023°30'0 0.0
2016-Jun-20 15:33N 37°53' E 023°30'0 0.0
2016-Jun-20 14:34N 37°53' E 023°30'0 0.3
2016-Jun-20 13:33N 37°53' E 023°30'6 5.6
2016-Jun-20 12:33N 37°57' E 023°34'  
Track history (hours):
 
Tides and Currents Weather Stations Pressure Air Temp Water Temp Dewpoint Dewpoint Depression Visibility Wind Speed Wind Dir Waves Ship Positions

Ecokeeper

Last reported at 2016-Jun-27 12:33 UTC. Time now 2016-Jun-28 20:40 UTC.
Position N 37°57' E 023°34'.

Length 90 m; draft 4.2 m.

Type: Tanker. MMSI: 240689000.

Date/timePositionNaut miles runAvg speedWind from/ knotsBaromVisibWave heightAir tempDewpointWater temp
2016-Jun-27 12:33N 37°57' E 023°34'2 2.4
2016-Jun-27 11:33N 37°57' E 023°37'0 0.0
2016-Jun-27 10:33N 37°57' E 023°37'0 0.0
2016-Jun-27 09:33N 37°57' E 023°37'0 0.0
2016-Jun-27 08:34N 37°57' E 023°37'0 0.0
2016-Jun-27 07:34N 37°57' E 023°37'0 0.0
2016-Jun-27 06:33N 37°57' E 023°37'1 0.8
2016-Jun-27 05:33N 37°57' E 023°36'2 0.1
2016-Jun-26 18:17N 37°57' E 023°34'4 5.2
2016-Jun-26 17:33N 38°00' E 023°32'1 1.0
2016-Jun-26 16:33N 38°01' E 023°31'0 0.0
2016-Jun-26 15:33N 38°01' E 023°31'0 0.2
2016-Jun-26 14:33N 38°01' E 023°31'0 0.0
2016-Jun-26 13:33N 38°01' E 023°31'0 0.0
2016-Jun-26 12:33N 38°01' E 023°31'0 0.0
2016-Jun-26 11:33N 38°01' E 023°31'4 4.0
2016-Jun-26 10:33N 37°57' E 023°34'2 1.9
2016-Jun-26 09:33N 37°55' E 023°34'0 0.0
2016-Jun-26 08:33N 37°55' E 023°34'0 0.0
2016-Jun-26 07:33N 37°55' E 023°34'0 0.0
2016-Jun-26 06:33N 37°55' E 023°34'0 0.0
2016-Jun-26 05:33N 37°55' E 023°34'0 0.0
2016-Jun-26 04:33N 37°55' E 023°34'0 0.0
2016-Jun-26 03:33N 37°55' E 023°34'0 0.0
2016-Jun-26 02:33N 37°55' E 023°34'0 0.0
2016-Jun-26 01:33N 37°55' E 023°34'0 0.0
2016-Jun-26 00:33N 37°55' E 023°34'0 0.0
2016-Jun-25 23:33N 37°56' E 023°34'5 5.4
2016-Jun-25 22:33N 37°51' E 023°31'1 0.6
2016-Jun-25 21:33N 37°50' E 023°31'0 0.1
2016-Jun-25 20:33N 37°50' E 023°31'0 0.0
2016-Jun-25 19:33N 37°50' E 023°31'0 0.0
2016-Jun-25 18:33N 37°50' E 023°31'0 0.0
2016-Jun-25 17:33N 37°50' E 023°31'5 4.8
2016-Jun-25 16:33N 37°54' E 023°34'3 0.1
2016-Jun-24 12:33N 37°57' E 023°34'2 2.3
2016-Jun-24 11:33N 37°57' E 023°37'0 0.0
2016-Jun-24 10:33N 37°57' E 023°37'0 0.0
2016-Jun-24 09:34N 37°57' E 023°37'0 0.0
2016-Jun-24 08:33N 37°57' E 023°37'0 0.0
2016-Jun-24 07:33N 37°57' E 023°37'0 0.2
2016-Jun-24 06:34N 37°57' E 023°37'2 0.2
2016-Jun-23 19:19N 37°57' E 023°34'1 1.5
2016-Jun-23 18:33N 37°56' E 023°35'6 5.8
2016-Jun-23 17:33N 37°51' E 023°32'0 0.0
2016-Jun-23 16:33N 37°51' E 023°32'0 0.0
2016-Jun-23 15:33N 37°51' E 023°32'0 0.0
2016-Jun-23 14:33N 37°51' E 023°32'0 0.0
2016-Jun-23 13:33N 37°51' E 023°32'0 0.0
2016-Jun-23 12:33N 37°51' E 023°32'0 0.0
2016-Jun-23 11:33N 37°51' E 023°32'1 0.6
2016-Jun-23 10:33N 37°51' E 023°32'6 5.9
2016-Jun-23 09:33N 37°57' E 023°34'0 0.0
2016-Jun-21 14:30N 37°57' E 023°34'4 4.4
2016-Jun-21 13:34N 38°01' E 023°32'0 0.0
2016-Jun-21 12:34N 38°01' E 023°32'0 0.0
2016-Jun-21 11:33N 38°01' E 023°32'0 0.0
2016-Jun-21 10:33N 38°01' E 023°32'0 0.0
2016-Jun-21 09:33N 38°01' E 023°32'0 0.0
2016-Jun-21 08:34N 38°01' E 023°32'0 0.0
2016-Jun-21 07:34N 38°01' E 023°32'3 1.6
2016-Jun-21 05:33N 37°58' E 023°33'1 0.1
2016-Jun-20 18:12N 37°57' E 023°34'1 2.1
2016-Jun-20 17:33N 37°56' E 023°34'4 4.3
2016-Jun-20 16:33N 37°53' E 023°30'0 0.0
2016-Jun-20 15:33N 37°53' E 023°30'0 0.0
2016-Jun-20 14:34N 37°53' E 023°30'0 0.3
2016-Jun-20 13:33N 37°53' E 023°30'6 5.6
2016-Jun-20 12:33N 37°57' E 023°34'  

Dump ship's entire track history